sensor_id;sensor_type;location;lat;lon;timestamp;pressure;altitude;pressure_sealevel;temperature;humidity
70589;BME280;58152;49.202;18.744;2022-12-29T00:01:31;97628.84;;;-0.47;72.75
70589;BME280;58152;49.202;18.744;2022-12-29T00:03:58;97645.19;;;-0.43;73.13
70589;BME280;58152;49.202;18.744;2022-12-29T00:06:24;97636.59;;;-0.48;73.12
70589;BME280;58152;49.202;18.744;2022-12-29T00:08:50;97637.44;;;-0.48;72.74
70589;BME280;58152;49.202;18.744;2022-12-29T00:11:21;97642.63;;;-0.49;72.76
70589;BME280;58152;49.202;18.744;2022-12-29T00:13:47;97640.88;;;-0.52;73.06
70589;BME280;58152;49.202;18.744;2022-12-29T00:16:32;97651.19;;;-0.49;73.23
70589;BME280;58152;49.202;18.744;2022-12-29T00:18:59;97655.50;;;-0.49;72.78
70589;BME280;58152;49.202;18.744;2022-12-29T00:21:26;97646.88;;;-0.56;73.00
70589;BME280;58152;49.202;18.744;2022-12-29T00:24:18;97651.19;;;-0.54;73.38
70589;BME280;58152;49.202;18.744;2022-12-29T00:26:49;97664.94;;;-0.55;72.91
70589;BME280;58152;49.202;18.744;2022-12-29T00:29:36;97658.91;;;-0.57;73.43
70589;BME280;58152;49.202;18.744;2022-12-29T00:32:20;97641.72;;;-0.59;73.36
70589;BME280;58152;49.202;18.744;2022-12-29T00:35:04;97628.81;;;-0.62;73.43
70589;BME280;58152;49.202;18.744;2022-12-29T00:37:33;97632.25;;;-0.60;72.83
70589;BME280;58152;49.202;18.744;2022-12-29T00:40:18;97634.00;;;-0.59;73.60
70589;BME280;58152;49.202;18.744;2022-12-29T00:43:02;97635.69;;;-0.63;73.80
70589;BME280;58152;49.202;18.744;2022-12-29T00:45:46;97646.00;;;-0.61;73.39
70589;BME280;58152;49.202;18.744;2022-12-29T00:48:11;97648.56;;;-0.60;73.37
70589;BME280;58152;49.202;18.744;2022-12-29T00:50:37;97640.84;;;-0.60;73.41
70589;BME280;58152;49.202;18.744;2022-12-29T00:53:02;97631.38;;;-0.61;73.34
70589;BME280;58152;49.202;18.744;2022-12-29T00:55:28;97624.50;;;-0.68;72.87
70589;BME280;58152;49.202;18.744;2022-12-29T00:57:53;97625.38;;;-0.66;73.43
70589;BME280;58152;49.202;18.744;2022-12-29T01:00:19;97622.78;;;-0.67;73.29
70589;BME280;58152;49.202;18.744;2022-12-29T01:02:44;97640.81;;;-0.66;73.52
70589;BME280;58152;49.202;18.744;2022-12-29T01:05:09;97634.81;;;-0.68;73.46
70589;BME280;58152;49.202;18.744;2022-12-29T01:07:35;97629.66;;;-0.66;73.82
70589;BME280;58152;49.202;18.744;2022-12-29T01:10:00;97628.81;;;-0.67;73.62
70589;BME280;58152;49.202;18.744;2022-12-29T01:12:34;97621.94;;;-0.65;74.07
70589;BME280;58152;49.202;18.744;2022-12-29T01:15:08;97627.94;;;-0.64;73.94
70589;BME280;58152;49.202;18.744;2022-12-29T01:17:34;97615.06;;;-0.64;73.70
70589;BME280;58152;49.202;18.744;2022-12-29T01:20:00;97616.78;;;-0.66;73.76
70589;BME280;58152;49.202;18.744;2022-12-29T01:22:25;97621.94;;;-0.68;73.64
70589;BME280;58152;49.202;18.744;2022-12-29T01:24:51;97625.38;;;-0.66;74.00
70589;BME280;58152;49.202;18.744;2022-12-29T01:27:16;97630.50;;;-0.66;73.65
70589;BME280;58152;49.202;18.744;2022-12-29T01:29:42;97628.81;;;-0.62;73.95
70589;BME280;58152;49.202;18.744;2022-12-29T01:32:07;97635.69;;;-0.61;74.16
70589;BME280;58152;49.202;18.744;2022-12-29T01:34:33;97637.41;;;-0.62;73.37
70589;BME280;58152;49.202;18.744;2022-12-29T01:36:58;97637.41;;;-0.60;73.94
70589;BME280;58152;49.202;18.744;2022-12-29T01:39:23;97630.53;;;-0.60;73.80
70589;BME280;58152;49.202;18.744;2022-12-29T01:41:49;97623.69;;;-0.59;73.92
70589;BME280;58152;49.202;18.744;2022-12-29T01:44:53;97633.13;;;-0.55;73.74
70589;BME280;58152;49.202;18.744;2022-12-29T01:47:25;97633.13;;;-0.58;74.06
70589;BME280;58152;49.202;18.744;2022-12-29T01:49:54;97635.69;;;-0.60;73.76
70589;BME280;58152;49.202;18.744;2022-12-29T01:52:22;97642.56;;;-0.57;74.38
70589;BME280;58152;49.202;18.744;2022-12-29T01:54:51;97646.00;;;-0.60;74.37
70589;BME280;58152;49.202;18.744;2022-12-29T01:57:24;97643.41;;;-0.61;74.10
70589;BME280;58152;49.202;18.744;2022-12-29T01:59:58;97665.78;;;-0.57;74.21
70589;BME280;58152;49.202;18.744;2022-12-29T02:02:25;97655.47;;;-0.59;74.15
70589;BME280;58152;49.202;18.744;2022-12-29T02:04:53;97651.16;;;-0.61;74.02
70589;BME280;58152;49.202;18.744;2022-12-29T02:07:23;97639.97;;;-0.62;74.38
70589;BME280;58152;49.202;18.744;2022-12-29T02:09:51;97639.13;;;-0.61;74.23
70589;BME280;58152;49.202;18.744;2022-12-29T02:12:19;97635.66;;;-0.64;74.00
70589;BME280;58152;49.202;18.744;2022-12-29T02:14:47;97641.69;;;-0.62;74.43
70589;BME280;58152;49.202;18.744;2022-12-29T02:20:18;97645.13;;;-0.60;75.34
70589;BME280;58152;49.202;18.744;2022-12-29T02:34:07;97627.09;;;-0.56;74.35
70589;BME280;58152;49.202;18.744;2022-12-29T02:36:47;97631.41;;;-0.59;74.89
70589;BME280;58152;49.202;18.744;2022-12-29T02:39:38;97634.00;;;-0.58;74.49
70589;BME280;58152;49.202;18.744;2022-12-29T02:42:33;97644.28;;;-0.56;74.57
70589;BME280;58152;49.202;18.744;2022-12-29T02:50:38;97623.69;;;-0.55;74.70
70589;BME280;58152;49.202;18.744;2022-12-29T02:53:08;97613.38;;;-0.58;75.14
70589;BME280;58152;49.202;18.744;2022-12-29T02:55:35;97605.66;;;-0.59;75.02
70589;BME280;58152;49.202;18.744;2022-12-29T02:58:21;97622.84;;;-0.54;75.24
70589;BME280;58152;49.202;18.744;2022-12-29T03:01:55;97624.53;;;-0.59;74.86
70589;BME280;58152;49.202;18.744;2022-12-29T03:06:56;97620.22;;;-0.57;75.08
70589;BME280;58152;49.202;18.744;2022-12-29T03:12:26;97618.53;;;-0.52;74.95
70589;BME280;58152;49.202;18.744;2022-12-29T03:15:18;97620.25;;;-0.51;75.08
70589;BME280;58152;49.202;18.744;2022-12-29T03:18:11;97626.25;;;-0.53;75.11
70589;BME280;58152;49.202;18.744;2022-12-29T03:20:52;97615.06;;;-0.55;75.04
70589;BME280;58152;49.202;18.744;2022-12-29T03:23:19;97633.13;;;-0.51;75.48
70589;BME280;58152;49.202;18.744;2022-12-29T03:25:48;97625.41;;;-0.51;74.83
70589;BME280;58152;49.202;18.744;2022-12-29T03:28:23;97621.09;;;-0.52;74.86
70589;BME280;58152;49.202;18.744;2022-12-29T03:30:49;97618.53;;;-0.55;74.88
70589;BME280;58152;49.202;18.744;2022-12-29T03:33:20;97609.09;;;-0.54;75.17
70589;BME280;58152;49.202;18.744;2022-12-29T03:35:49;97607.34;;;-0.58;74.72
70589;BME280;58152;49.202;18.744;2022-12-29T03:38:19;97607.34;;;-0.55;74.89
70589;BME280;58152;49.202;18.744;2022-12-29T03:40:52;97621.94;;;-0.56;74.82
70589;BME280;58152;49.202;18.744;2022-12-29T03:43:20;97612.50;;;-0.55;75.53
70589;BME280;58152;49.202;18.744;2022-12-29T03:45:46;97624.53;;;-0.57;75.32
70589;BME280;58152;49.202;18.744;2022-12-29T03:48:12;97618.50;;;-0.61;75.08
70589;BME280;58152;49.202;18.744;2022-12-29T03:50:37;97627.09;;;-0.60;75.74
70589;BME280;58152;49.202;18.744;2022-12-29T03:53:03;97627.97;;;-0.61;75.63
70589;BME280;58152;49.202;18.744;2022-12-29T03:55:28;97623.69;;;-0.59;75.43
70589;BME280;58152;49.202;18.744;2022-12-29T03:57:54;97615.94;;;-0.59;75.14
70589;BME280;58152;49.202;18.744;2022-12-29T04:00:19;97615.09;;;-0.58;75.51
70589;BME280;58152;49.202;18.744;2022-12-29T04:02:45;97612.50;;;-0.63;75.49
70589;BME280;58152;49.202;18.744;2022-12-29T04:05:13;97609.91;;;-0.61;75.08
70589;BME280;58152;49.202;18.744;2022-12-29T04:07:42;97606.47;;;-0.62;75.76
70589;BME280;58152;49.202;18.744;2022-12-29T04:10:26;97610.78;;;-0.59;75.59
70589;BME280;58152;49.202;18.744;2022-12-29T04:12:52;97597.00;;;-0.64;75.14
70589;BME280;58152;49.202;18.744;2022-12-29T04:15:25;97605.63;;;-0.61;74.96
70589;BME280;58152;49.202;18.744;2022-12-29T04:17:56;97600.44;;;-0.65;74.90
70589;BME280;58152;49.202;18.744;2022-12-29T04:20:39;97600.44;;;-0.65;75.50
70589;BME280;58152;49.202;18.744;2022-12-29T04:23:36;97590.16;;;-0.68;75.17
70589;BME280;58152;49.202;18.744;2022-12-29T04:26:02;97576.38;;;-0.70;75.37
70589;BME280;58152;49.202;18.744;2022-12-29T04:28:29;97603.03;;;-0.61;75.48
70589;BME280;58152;49.202;18.744;2022-12-29T04:30:54;97594.44;;;-0.67;74.85
70589;BME280;58152;49.202;18.744;2022-12-29T04:33:22;97590.16;;;-0.67;74.92
70589;BME280;58152;49.202;18.744;2022-12-29T04:35:49;97576.38;;;-0.70;75.46
70589;BME280;58152;49.202;18.744;2022-12-29T04:38:21;97585.00;;;-0.65;75.09
70589;BME280;58152;49.202;18.744;2022-12-29T04:40:49;97576.38;;;-0.70;74.80
70589;BME280;58152;49.202;18.744;2022-12-29T04:43:16;97586.72;;;-0.67;75.15
70589;BME280;58152;49.202;18.744;2022-12-29T04:45:47;97581.53;;;-0.70;75.30
70589;BME280;58152;49.202;18.744;2022-12-29T04:48:16;97572.09;;;-0.73;75.36
70589;BME280;58152;49.202;18.744;2022-12-29T04:50:42;97575.56;;;-0.68;75.96
70589;BME280;58152;49.202;18.744;2022-12-29T04:53:10;97562.66;;;-0.72;75.35
70589;BME280;58152;49.202;18.744;2022-12-29T04:55:43;97572.97;;;-0.66;75.25
70589;BME280;58152;49.202;18.744;2022-12-29T04:58:24;97575.56;;;-0.68;75.37
70589;BME280;58152;49.202;18.744;2022-12-29T05:00:53;97568.66;;;-0.69;75.59
70589;BME280;58152;49.202;18.744;2022-12-29T05:03:22;97581.53;;;-0.70;75.70
70589;BME280;58152;49.202;18.744;2022-12-29T05:06:02;97573.81;;;-0.75;75.03
70589;BME280;58152;49.202;18.744;2022-12-29T05:08:28;97580.69;;;-0.72;75.57
70589;BME280;58152;49.202;18.744;2022-12-29T05:11:09;97567.78;;;-0.75;75.68
70589;BME280;58152;49.202;18.744;2022-12-29T05:14:11;97573.81;;;-0.70;75.16
70589;BME280;58152;49.202;18.744;2022-12-29T05:16:54;97557.47;;;-0.79;75.65
70589;BME280;58152;49.202;18.744;2022-12-29T05:20:24;97577.25;;;-0.73;75.33
70589;BME280;58152;49.202;18.744;2022-12-29T05:23:10;97574.69;;;-0.73;75.34
70589;BME280;58152;49.202;18.744;2022-12-29T05:25:39;97561.78;;;-0.78;75.56
70589;BME280;58152;49.202;18.744;2022-12-29T05:28:09;97559.22;;;-0.78;75.61
70589;BME280;58152;49.202;18.744;2022-12-29T05:30:39;97572.09;;;-0.74;75.57
70589;BME280;58152;49.202;18.744;2022-12-29T05:33:05;97577.25;;;-0.73;75.81
70589;BME280;58152;49.202;18.744;2022-12-29T05:35:32;97575.53;;;-0.75;75.49
70589;BME280;58152;49.202;18.744;2022-12-29T05:37:57;97584.97;;;-0.70;75.40
70589;BME280;58152;49.202;18.744;2022-12-29T05:40:23;97585.81;;;-0.74;75.25
70589;BME280;58152;49.202;18.744;2022-12-29T05:42:48;97583.25;;;-0.75;75.93
70589;BME280;58152;49.202;18.744;2022-12-29T05:45:15;97584.09;;;-0.75;75.98
70589;BME280;58152;49.202;18.744;2022-12-29T05:47:40;97583.25;;;-0.71;75.95
70589;BME280;58152;49.202;18.744;2022-12-29T05:50:06;97574.69;;;-0.73;74.82
70589;BME280;58152;49.202;18.744;2022-12-29T05:52:32;97572.94;;;-0.74;74.99
70589;BME280;58152;49.202;18.744;2022-12-29T05:54:57;97569.50;;;-0.76;75.21
70589;BME280;58152;49.202;18.744;2022-12-29T05:57:23;97581.53;;;-0.77;75.88
70589;BME280;58152;49.202;18.744;2022-12-29T05:59:48;97568.63;;;-0.73;76.02
70589;BME280;58152;49.202;18.744;2022-12-29T06:02:14;97565.22;;;-0.77;75.70
70589;BME280;58152;49.202;18.744;2022-12-29T06:04:39;97564.34;;;-0.74;75.76
70589;BME280;58152;49.202;18.744;2022-12-29T06:07:04;97573.81;;;-0.77;75.25
70589;BME280;58152;49.202;18.744;2022-12-29T06:09:30;97579.81;;;-0.78;75.73
70589;BME280;58152;49.202;18.744;2022-12-29T06:11:58;97576.34;;;-0.78;75.32
70589;BME280;58152;49.202;18.744;2022-12-29T06:14:23;97561.78;;;-0.82;75.60
70589;BME280;58152;49.202;18.744;2022-12-29T06:16:49;97572.94;;;-0.77;75.68
70589;BME280;58152;49.202;18.744;2022-12-29T06:19:14;97567.78;;;-0.82;75.44
70589;BME280;58152;49.202;18.744;2022-12-29T06:21:39;97565.22;;;-0.82;75.63
70589;BME280;58152;49.202;18.744;2022-12-29T06:24:05;97581.53;;;-0.81;75.77
70589;BME280;58152;49.202;18.744;2022-12-29T06:26:31;97574.66;;;-0.81;75.83
70589;BME280;58152;49.202;18.744;2022-12-29T06:28:56;97579.78;;;-0.84;75.97
70589;BME280;58152;49.202;18.744;2022-12-29T06:31:21;97576.34;;;-0.83;75.53
70589;BME280;58152;49.202;18.744;2022-12-29T06:33:47;97584.06;;;-0.83;75.80
70589;BME280;58152;49.202;18.744;2022-12-29T06:36:12;97582.38;;;-0.85;75.22
70589;BME280;58152;49.202;18.744;2022-12-29T06:38:38;97581.50;;;-0.84;75.44
70589;BME280;58152;49.202;18.744;2022-12-29T06:41:03;97588.38;;;-0.83;75.59
70589;BME280;58152;49.202;18.744;2022-12-29T06:43:29;97590.09;;;-0.81;75.61
70589;BME280;58152;49.202;18.744;2022-12-29T06:45:55;97582.34;;;-0.84;75.45
70589;BME280;58152;49.202;18.744;2022-12-29T06:48:21;97574.63;;;-0.84;75.08
70589;BME280;58152;49.202;18.744;2022-12-29T06:50:46;97572.06;;;-0.87;75.45
70589;BME280;58152;49.202;18.744;2022-12-29T06:53:14;97584.94;;;-0.87;75.31
70589;BME280;58152;49.202;18.744;2022-12-29T06:55:41;97575.47;;;-0.94;75.17
70589;BME280;58152;49.202;18.744;2022-12-29T06:58:12;97571.16;;;-0.93;75.44
70589;BME280;58152;49.202;18.744;2022-12-29T07:00:37;97569.47;;;-0.91;75.26
70589;BME280;58152;49.202;18.744;2022-12-29T07:03:03;97566.88;;;-0.93;75.75
70589;BME280;58152;49.202;18.744;2022-12-29T07:05:54;97574.63;;;-0.85;75.64
70589;BME280;58152;49.202;18.744;2022-12-29T07:08:31;97566.00;;;-0.93;75.87
70589;BME280;58152;49.202;18.744;2022-12-29T07:10:56;97569.47;;;-0.85;75.63
70589;BME280;58152;49.202;18.744;2022-12-29T07:13:46;97565.19;;;-0.83;75.52
70589;BME280;58152;49.202;18.744;2022-12-29T07:16:16;97565.16;;;-0.88;75.58
70589;BME280;58152;49.202;18.744;2022-12-29T07:18:44;97557.44;;;-0.89;75.42
70589;BME280;58152;49.202;18.744;2022-12-29T07:21:10;97565.19;;;-0.86;75.53
70589;BME280;58152;49.202;18.744;2022-12-29T07:23:35;97572.06;;;-0.87;75.53
70589;BME280;58152;49.202;18.744;2022-12-29T07:26:02;97572.06;;;-0.85;75.44
70589;BME280;58152;49.202;18.744;2022-12-29T07:28:44;97576.34;;;-0.89;75.17
70589;BME280;58152;49.202;18.744;2022-12-29T07:31:26;97576.31;;;-0.92;75.36
70589;BME280;58152;49.202;18.744;2022-12-29T07:34:00;97574.63;;;-0.90;75.42
70589;BME280;58152;49.202;18.744;2022-12-29T07:36:31;97578.06;;;-0.89;74.85
70589;BME280;58152;49.202;18.744;2022-12-29T07:39:02;97574.59;;;-0.94;75.26
70589;BME280;58152;49.202;18.744;2022-12-29T07:41:30;97581.50;;;-0.89;75.66
70589;BME280;58152;49.202;18.744;2022-12-29T07:43:55;97575.47;;;-0.92;75.43
70589;BME280;58152;49.202;18.744;2022-12-29T07:46:58;97582.38;;;-0.82;75.40
70589;BME280;58152;49.202;18.744;2022-12-29T07:49:26;97567.72;;;-0.92;75.94
70589;BME280;58152;49.202;18.744;2022-12-29T07:51:51;97566.06;;;-0.86;75.87
70589;BME280;58152;49.202;18.744;2022-12-29T07:54:17;97565.16;;;-0.88;75.35
70589;BME280;58152;49.202;18.744;2022-12-29T07:56:47;97568.66;;;-0.81;75.64
70589;BME280;58152;49.202;18.744;2022-12-29T07:59:18;97563.47;;;-0.84;75.98
70589;BME280;58152;49.202;18.744;2022-12-29T08:01:43;97565.22;;;-0.82;75.89
70589;BME280;58152;49.202;18.744;2022-12-29T08:04:09;97562.63;;;-0.80;75.53
70589;BME280;58152;49.202;18.744;2022-12-29T08:06:34;97567.78;;;-0.75;75.28
70589;BME280;58152;49.202;18.744;2022-12-29T08:09:00;97565.22;;;-0.72;75.32
70589;BME280;58152;49.202;18.744;2022-12-29T08:11:34;97577.28;;;-0.68;75.29
70589;BME280;58152;49.202;18.744;2022-12-29T08:14:09;97564.38;;;-0.70;75.56
70589;BME280;58152;49.202;18.744;2022-12-29T08:16:53;97572.94;;;-0.69;75.64
70589;BME280;58152;49.202;18.744;2022-12-29T08:19:40;97577.25;;;-0.61;76.48
70589;BME280;58152;49.202;18.744;2022-12-29T08:22:14;97573.84;;;-0.63;75.66
70589;BME280;58152;49.202;18.744;2022-12-29T08:24:40;97577.28;;;-0.58;76.34
70589;BME280;58152;49.202;18.744;2022-12-29T08:29:54;97577.31;;;-0.55;76.31
70589;BME280;58152;49.202;18.744;2022-12-29T08:32:20;97567.84;;;-0.49;75.84
70589;BME280;58152;49.202;18.744;2022-12-29T08:35:39;97559.25;;;-0.44;76.25
70589;BME280;58152;49.202;18.744;2022-12-29T08:38:05;97560.13;;;-0.37;76.24
70589;BME280;58152;49.202;18.744;2022-12-29T08:40:37;97559.28;;;-0.26;76.44
70589;BME280;58152;49.202;18.744;2022-12-29T08:43:02;97558.41;;;-0.18;75.96
70589;BME280;58152;49.202;18.744;2022-12-29T08:45:44;97559.28;;;-0.15;75.55
70589;BME280;58152;49.202;18.744;2022-12-29T08:48:31;97558.44;;;-0.12;75.90
70589;BME280;58152;49.202;18.744;2022-12-29T08:50:56;97564.47;;;-0.04;76.05
70589;BME280;58152;49.202;18.744;2022-12-29T08:53:47;97539.50;;;-0.07;75.96
70589;BME280;58152;49.202;18.744;2022-12-29T08:56:26;97552.41;;;-0.02;75.77
70589;BME280;58152;49.202;18.744;2022-12-29T09:02:17;97545.53;;;0.11;75.95
70589;BME280;58152;49.202;18.744;2022-12-29T09:54:50;97523.66;;;1.17;75.81
70589;BME280;58152;49.202;18.744;2022-12-29T10:45:19;97463.75;;;3.80;71.63
70589;BME280;58152;49.202;18.744;2022-12-29T11:05:03;97462.84;;;4.74;69.39
70589;BME280;58152;49.202;18.744;2022-12-29T11:07:43;97453.03;;;4.89;68.98
70589;BME280;58152;49.202;18.744;2022-12-29T11:13:56;97438.22;;;5.31;67.79
70589;BME280;58152;49.202;18.744;2022-12-29T11:17:03;97435.84;;;5.57;67.54
70589;BME280;58152;49.202;18.744;2022-12-29T11:26:15;97458.66;;;6.19;66.35
70589;BME280;58152;49.202;18.744;2022-12-29T11:32:29;97461.19;;;6.53;65.27
70589;BME280;58152;49.202;18.744;2022-12-29T15:56:47;97432.13;;;5.68;63.35
70589;BME280;58152;49.202;18.744;2022-12-29T16:02:25;97447.69;;;5.71;64.19
70589;BME280;58152;49.202;18.744;2022-12-29T16:08:45;97431.66;;;5.52;63.51
70589;BME280;58152;49.202;18.744;2022-12-29T16:19:28;97423.50;;;5.30;63.91
70589;BME280;58152;49.202;18.744;2022-12-29T16:29:19;97415.06;;;5.20;64.64
70589;BME280;58152;49.202;18.744;2022-12-29T16:32:03;97418.50;;;5.22;64.64
70589;BME280;58152;49.202;18.744;2022-12-29T16:35:22;97426.41;;;5.16;64.28
70589;BME280;58152;49.202;18.744;2022-12-29T16:41:41;97427.59;;;5.03;64.67
70589;BME280;58152;49.202;18.744;2022-12-29T16:47:29;97428.72;;;4.90;64.53
70589;BME280;58152;49.202;18.744;2022-12-29T16:50:11;97433.22;;;4.83;64.55
70589;BME280;58152;49.202;18.744;2022-12-29T16:52:38;97434.13;;;4.80;64.70
70589;BME280;58152;49.202;18.744;2022-12-29T16:55:03;97433.28;;;4.80;64.80
70589;BME280;58152;49.202;18.744;2022-12-29T16:57:32;97439.50;;;4.73;64.70
70589;BME280;58152;49.202;18.744;2022-12-29T17:00:06;97436.97;;;4.70;65.03
70589;BME280;58152;49.202;18.744;2022-12-29T17:02:33;97444.75;;;4.70;64.96
70589;BME280;58152;49.202;18.744;2022-12-29T17:04:59;97449.97;;;4.70;65.12
70589;BME280;58152;49.202;18.744;2022-12-29T17:07:29;97447.41;;;4.68;65.42
70589;BME280;58152;49.202;18.744;2022-12-29T17:09:55;97459.47;;;4.71;65.92
70589;BME280;58152;49.202;18.744;2022-12-29T17:12:30;97452.59;;;4.68;65.46
70589;BME280;58152;49.202;18.744;2022-12-29T17:17:45;97454.50;;;4.60;65.73
70589;BME280;58152;49.202;18.744;2022-12-29T17:20:15;97469.94;;;4.66;65.56
70589;BME280;58152;49.202;18.744;2022-12-29T17:22:41;97459.66;;;4.62;65.61
70589;BME280;58152;49.202;18.744;2022-12-29T17:25:11;97468.34;;;4.61;65.79
70589;BME280;58152;49.202;18.744;2022-12-29T17:27:47;97467.56;;;4.55;66.27
70589;BME280;58152;49.202;18.744;2022-12-29T17:30:15;97468.34;;;4.61;66.41
70589;BME280;58152;49.202;18.744;2022-12-29T17:32:43;97472.72;;;4.57;66.47
70589;BME280;58152;49.202;18.744;2022-12-29T17:35:14;97471.91;;;4.55;66.18
70589;BME280;58152;49.202;18.744;2022-12-29T17:37:46;97471.88;;;4.56;66.39
70589;BME280;58152;49.202;18.744;2022-12-29T17:40:16;97461.56;;;4.52;66.24
70589;BME280;58152;49.202;18.744;2022-12-29T17:42:44;97458.97;;;4.52;66.35
70589;BME280;58152;49.202;18.744;2022-12-29T17:45:16;97472.78;;;4.55;66.58
70589;BME280;58152;49.202;18.744;2022-12-29T17:47:42;97463.28;;;4.53;66.62
70589;BME280;58152;49.202;18.744;2022-12-29T17:50:15;97458.97;;;4.52;66.99
70589;BME280;58152;49.202;18.744;2022-12-29T17:52:42;97458.06;;;4.54;66.58
70589;BME280;58152;49.202;18.744;2022-12-29T17:55:17;97462.34;;;4.57;66.74
70589;BME280;58152;49.202;18.744;2022-12-29T17:57:43;97462.41;;;4.54;67.02
70589;BME280;58152;49.202;18.744;2022-12-29T18:00:17;97454.72;;;4.48;66.85
70589;BME280;58152;49.202;18.744;2022-12-29T18:02:45;97458.16;;;4.50;66.48
70589;BME280;58152;49.202;18.744;2022-12-29T18:07:51;97454.91;;;4.39;66.82
70589;BME280;58152;49.202;18.744;2022-12-29T18:13:22;97447.19;;;4.36;66.87
70589;BME280;58152;49.202;18.744;2022-12-29T18:15:50;97449.75;;;4.37;66.79
70589;BME280;58152;49.202;18.744;2022-12-29T18:18:28;97454.94;;;4.37;67.26
70589;BME280;58152;49.202;18.744;2022-12-29T18:20:55;97442.16;;;4.26;66.69
70589;BME280;58152;49.202;18.744;2022-12-29T18:29:47;97424.94;;;4.21;67.14
70589;BME280;58152;49.202;18.744;2022-12-29T18:32:16;97433.53;;;4.24;67.32
70589;BME280;58152;49.202;18.744;2022-12-29T18:34:46;97435.41;;;4.18;67.28
70589;BME280;58152;49.202;18.744;2022-12-29T18:37:13;97434.56;;;4.16;67.16
70589;BME280;58152;49.202;18.744;2022-12-29T18:39:43;97436.34;;;4.14;67.81
70589;BME280;58152;49.202;18.744;2022-12-29T18:42:30;97436.31;;;4.15;67.64
70589;BME280;58152;49.202;18.744;2022-12-29T18:44:56;97425.88;;;4.17;67.59
70589;BME280;58152;49.202;18.744;2022-12-29T18:47:23;97422.44;;;4.16;67.72
70589;BME280;58152;49.202;18.744;2022-12-29T18:49:49;97423.31;;;4.15;67.51
70589;BME280;58152;49.202;18.744;2022-12-29T18:52:22;97431.91;;;4.19;67.73
70589;BME280;58152;49.202;18.744;2022-12-29T18:54:48;97438.84;;;4.17;67.61
70589;BME280;58152;49.202;18.744;2022-12-29T18:57:18;97420.75;;;4.14;68.12
70589;BME280;58152;49.202;18.744;2022-12-29T19:00:11;97416.47;;;4.13;67.91
70589;BME280;58152;49.202;18.744;2022-12-29T19:02:38;97413.91;;;4.10;67.58
70589;BME280;58152;49.202;18.744;2022-12-29T19:05:37;97433.75;;;4.14;67.66
70589;BME280;58152;49.202;18.744;2022-12-29T19:08:05;97428.75;;;4.01;67.94
70589;BME280;58152;49.202;18.744;2022-12-29T19:10:31;97435.66;;;4.02;68.16
70589;BME280;58152;49.202;18.744;2022-12-29T19:12:58;97429.59;;;4.03;68.17
70589;BME280;58152;49.202;18.744;2022-12-29T19:21:56;97424.50;;;3.97;68.29
70589;BME280;58152;49.202;18.744;2022-12-29T19:24:25;97422.94;;;3.89;68.00
70589;BME280;58152;49.202;18.744;2022-12-29T19:27:10;97433.22;;;3.95;68.49
70589;BME280;58152;49.202;18.744;2022-12-29T19:36:25;97424.78;;;3.82;68.41
70589;BME280;58152;49.202;18.744;2022-12-29T19:45:51;97411.09;;;3.74;68.46
70589;BME280;58152;49.202;18.744;2022-12-29T19:48:35;97419.63;;;3.80;68.65
70589;BME280;58152;49.202;18.744;2022-12-29T19:51:09;97423.97;;;3.78;68.83
70589;BME280;58152;49.202;18.744;2022-12-29T19:53:36;97411.13;;;3.72;68.68
70589;BME280;58152;49.202;18.744;2022-12-29T19:56:03;97412.91;;;3.69;68.54
70589;BME280;58152;49.202;18.744;2022-12-29T19:58:30;97425.00;;;3.70;68.79
70589;BME280;58152;49.202;18.744;2022-12-29T20:01:17;97404.38;;;3.62;68.62
70589;BME280;58152;49.202;18.744;2022-12-29T20:03:47;97411.31;;;3.60;68.91
70589;BME280;58152;49.202;18.744;2022-12-29T20:06:14;97419.13;;;3.59;68.79
70589;BME280;58152;49.202;18.744;2022-12-29T20:08:43;97418.22;;;3.61;68.76
70589;BME280;58152;49.202;18.744;2022-12-29T20:18:20;97415.69;;;3.58;68.67
70589;BME280;58152;49.202;18.744;2022-12-29T20:21:13;97423.47;;;3.56;69.02
70589;BME280;58152;49.202;18.744;2022-12-29T20:23:50;97422.72;;;3.50;69.10
70589;BME280;58152;49.202;18.744;2022-12-29T20:26:49;97421.88;;;3.49;68.78
70589;BME280;58152;49.202;18.744;2022-12-29T20:29:33;97417.59;;;3.47;68.96
70589;BME280;58152;49.202;18.744;2022-12-29T20:32:26;97409.00;;;3.45;68.88
70589;BME280;58152;49.202;18.744;2022-12-29T20:34:54;97422.78;;;3.47;69.06
70589;BME280;58152;49.202;18.744;2022-12-29T20:37:25;97416.84;;;3.40;69.36
70589;BME280;58152;49.202;18.744;2022-12-29T20:43:12;97418.63;;;3.37;69.33
70589;BME280;58152;49.202;18.744;2022-12-29T20:45:38;97421.13;;;3.41;69.66
70589;BME280;58152;49.202;18.744;2022-12-29T20:48:16;97418.59;;;3.40;69.41
70589;BME280;58152;49.202;18.744;2022-12-29T20:50:59;97412.56;;;3.36;69.75
70589;BME280;58152;49.202;18.744;2022-12-29T20:57:04;97429.03;;;3.35;70.01
70589;BME280;58152;49.202;18.744;2022-12-29T20:59:49;97436.84;;;3.32;69.60
70589;BME280;58152;49.202;18.744;2022-12-29T21:02:40;97436.88;;;3.29;69.89
70589;BME280;58152;49.202;18.744;2022-12-29T21:05:08;97435.09;;;3.33;69.64
70589;BME280;58152;49.202;18.744;2022-12-29T21:07:33;97436.88;;;3.29;69.82
70589;BME280;58152;49.202;18.744;2022-12-29T21:10:02;97431.75;;;3.26;69.92
70589;BME280;58152;49.202;18.744;2022-12-29T21:12:34;97437.81;;;3.25;69.85
70589;BME280;58152;49.202;18.744;2022-12-29T21:22:09;97440.47;;;3.22;69.92
70589;BME280;58152;49.202;18.744;2022-12-29T21:24:34;97437.88;;;3.20;69.98
70589;BME280;58152;49.202;18.744;2022-12-29T21:27:19;97423.34;;;3.10;69.91
70589;BME280;58152;49.202;18.744;2022-12-29T21:33:36;97431.16;;;3.09;69.99
70589;BME280;58152;49.202;18.744;2022-12-29T21:53:32;97421.97;;;2.86;70.65
70589;BME280;58152;49.202;18.744;2022-12-29T21:59:30;97447.78;;;2.92;70.85
70589;BME280;58152;49.202;18.744;2022-12-29T22:05:42;97444.34;;;2.93;70.27
70589;BME280;58152;49.202;18.744;2022-12-29T22:19:04;97455.69;;;2.85;71.02
70589;BME280;58152;49.202;18.744;2022-12-29T22:29:14;97463.50;;;2.78;70.82
70589;BME280;58152;49.202;18.744;2022-12-29T22:32:06;97444.63;;;2.69;70.71
70589;BME280;58152;49.202;18.744;2022-12-29T22:34:32;97444.63;;;2.70;71.25